sensor_id;sensor_type;location;lat;lon;timestamp;P1;durP1;ratioP1;P2;durP2;ratioP2
7150;SDS011;3617;48.836;9.172;2023-04-06T00:00:11;15.43;;;8.07;;
7150;SDS011;3617;48.836;9.172;2023-04-06T00:02:37;12.87;;;8.23;;
7150;SDS011;3617;48.836;9.172;2023-04-06T00:05:03;11.47;;;7.53;;
7150;SDS011;3617;48.836;9.172;2023-04-06T00:07:29;12.40;;;7.90;;
7150;SDS011;3617;48.836;9.172;2023-04-06T00:09:55;14.13;;;8.77;;
7150;SDS011;3617;48.836;9.172;2023-04-06T00:12:21;15.43;;;8.13;;
7150;SDS011;3617;48.836;9.172;2023-04-06T00:14:47;13.00;;;8.10;;
7150;SDS011;3617;48.836;9.172;2023-04-06T00:17:13;19.23;;;8.80;;
7150;SDS011;3617;48.836;9.172;2023-04-06T00:19:39;15.43;;;8.80;;
7150;SDS011;3617;48.836;9.172;2023-04-06T00:22:05;16.23;;;8.53;;
7150;SDS011;3617;48.836;9.172;2023-04-06T00:24:31;16.23;;;8.67;;
7150;SDS011;3617;48.836;9.172;2023-04-06T00:26:57;15.27;;;8.63;;
7150;SDS011;3617;48.836;9.172;2023-04-06T00:29:23;19.10;;;8.40;;
7150;SDS011;3617;48.836;9.172;2023-04-06T00:31:49;13.90;;;7.90;;
7150;SDS011;3617;48.836;9.172;2023-04-06T00:34:15;13.43;;;7.70;;
7150;SDS011;3617;48.836;9.172;2023-04-06T00:36:41;16.00;;;8.33;;
7150;SDS011;3617;48.836;9.172;2023-04-06T00:39:07;13.60;;;8.00;;
7150;SDS011;3617;48.836;9.172;2023-04-06T00:41:33;11.93;;;7.83;;
7150;SDS011;3617;48.836;9.172;2023-04-06T00:43:59;14.03;;;8.03;;
7150;SDS011;3617;48.836;9.172;2023-04-06T00:46:25;16.23;;;8.47;;
7150;SDS011;3617;48.836;9.172;2023-04-06T00:48:51;14.13;;;8.17;;
7150;SDS011;3617;48.836;9.172;2023-04-06T00:51:17;15.00;;;9.00;;
7150;SDS011;3617;48.836;9.172;2023-04-06T00:53:43;14.97;;;8.60;;
7150;SDS011;3617;48.836;9.172;2023-04-06T00:56:11;16.30;;;8.43;;
7150;SDS011;3617;48.836;9.172;2023-04-06T00:58:37;13.00;;;7.57;;
7150;SDS011;3617;48.836;9.172;2023-04-06T01:01:03;12.80;;;8.63;;
7150;SDS011;3617;48.836;9.172;2023-04-06T01:03:30;12.27;;;7.87;;
7150;SDS011;3617;48.836;9.172;2023-04-06T01:05:56;13.10;;;7.90;;
7150;SDS011;3617;48.836;9.172;2023-04-06T01:08:23;12.47;;;7.97;;
7150;SDS011;3617;48.836;9.172;2023-04-06T01:10:49;15.03;;;8.87;;
7150;SDS011;3617;48.836;9.172;2023-04-06T01:13:15;15.70;;;7.60;;
7150;SDS011;3617;48.836;9.172;2023-04-06T01:15:41;15.17;;;7.63;;
7150;SDS011;3617;48.836;9.172;2023-04-06T01:18:08;12.80;;;7.80;;
7150;SDS011;3617;48.836;9.172;2023-04-06T01:20:37;12.23;;;7.60;;
7150;SDS011;3617;48.836;9.172;2023-04-06T01:23:03;13.83;;;8.17;;
7150;SDS011;3617;48.836;9.172;2023-04-06T01:25:29;13.00;;;7.50;;
7150;SDS011;3617;48.836;9.172;2023-04-06T01:27:55;15.43;;;8.10;;
7150;SDS011;3617;48.836;9.172;2023-04-06T01:30:21;14.63;;;7.93;;
7150;SDS011;3617;48.836;9.172;2023-04-06T01:32:47;13.87;;;8.07;;
7150;SDS011;3617;48.836;9.172;2023-04-06T01:35:13;14.20;;;8.00;;
7150;SDS011;3617;48.836;9.172;2023-04-06T01:37:40;13.40;;;8.17;;
7150;SDS011;3617;48.836;9.172;2023-04-06T01:40:06;13.37;;;8.30;;
7150;SDS011;3617;48.836;9.172;2023-04-06T01:42:32;14.63;;;8.37;;
7150;SDS011;3617;48.836;9.172;2023-04-06T01:44:58;16.37;;;8.63;;
7150;SDS011;3617;48.836;9.172;2023-04-06T01:47:24;12.90;;;7.57;;
7150;SDS011;3617;48.836;9.172;2023-04-06T01:49:50;13.93;;;7.80;;
7150;SDS011;3617;48.836;9.172;2023-04-06T01:52:16;12.40;;;7.13;;
7150;SDS011;3617;48.836;9.172;2023-04-06T01:54:42;14.50;;;8.20;;
7150;SDS011;3617;48.836;9.172;2023-04-06T01:57:09;13.97;;;8.13;;
7150;SDS011;3617;48.836;9.172;2023-04-06T01:59:35;13.27;;;7.97;;
7150;SDS011;3617;48.836;9.172;2023-04-06T02:02:01;10.60;;;7.27;;
7150;SDS011;3617;48.836;9.172;2023-04-06T02:04:27;14.27;;;7.37;;
7150;SDS011;3617;48.836;9.172;2023-04-06T02:06:53;12.03;;;7.27;;
7150;SDS011;3617;48.836;9.172;2023-04-06T02:09:19;12.43;;;7.30;;
7150;SDS011;3617;48.836;9.172;2023-04-06T02:11:45;12.27;;;7.10;;
7150;SDS011;3617;48.836;9.172;2023-04-06T02:14:11;13.67;;;7.73;;
7150;SDS011;3617;48.836;9.172;2023-04-06T02:16:37;13.33;;;8.27;;
7150;SDS011;3617;48.836;9.172;2023-04-06T02:19:04;11.77;;;7.00;;
7150;SDS011;3617;48.836;9.172;2023-04-06T02:21:30;12.43;;;7.67;;
7150;SDS011;3617;48.836;9.172;2023-04-06T02:23:56;11.53;;;8.10;;
7150;SDS011;3617;48.836;9.172;2023-04-06T02:26:22;12.73;;;7.57;;
7150;SDS011;3617;48.836;9.172;2023-04-06T02:28:48;12.83;;;7.60;;
7150;SDS011;3617;48.836;9.172;2023-04-06T02:31:14;11.87;;;8.00;;
7150;SDS011;3617;48.836;9.172;2023-04-06T02:33:41;12.50;;;7.20;;
7150;SDS011;3617;48.836;9.172;2023-04-06T02:36:07;13.10;;;8.03;;
7150;SDS011;3617;48.836;9.172;2023-04-06T02:38:33;19.70;;;8.60;;
7150;SDS011;3617;48.836;9.172;2023-04-06T02:40:59;18.23;;;8.40;;
7150;SDS011;3617;48.836;9.172;2023-04-06T02:43:25;16.87;;;8.80;;
7150;SDS011;3617;48.836;9.172;2023-04-06T02:45:51;14.10;;;7.90;;
7150;SDS011;3617;48.836;9.172;2023-04-06T02:48:17;11.90;;;7.70;;
7150;SDS011;3617;48.836;9.172;2023-04-06T02:50:43;14.60;;;8.10;;
7150;SDS011;3617;48.836;9.172;2023-04-06T02:53:09;14.83;;;8.43;;
7150;SDS011;3617;48.836;9.172;2023-04-06T02:55:35;12.53;;;8.07;;
7150;SDS011;3617;48.836;9.172;2023-04-06T02:58:01;12.50;;;8.23;;
7150;SDS011;3617;48.836;9.172;2023-04-06T03:00:27;14.13;;;8.73;;
7150;SDS011;3617;48.836;9.172;2023-04-06T03:02:53;13.77;;;8.47;;
7150;SDS011;3617;48.836;9.172;2023-04-06T03:05:19;15.50;;;7.90;;
7150;SDS011;3617;48.836;9.172;2023-04-06T03:07:45;14.17;;;8.30;;
7150;SDS011;3617;48.836;9.172;2023-04-06T03:10:11;10.50;;;7.37;;
7150;SDS011;3617;48.836;9.172;2023-04-06T03:12:37;17.27;;;8.43;;
7150;SDS011;3617;48.836;9.172;2023-04-06T03:15:03;15.17;;;7.47;;
7150;SDS011;3617;48.836;9.172;2023-04-06T03:17:30;14.33;;;8.63;;
7150;SDS011;3617;48.836;9.172;2023-04-06T03:19:56;15.00;;;9.17;;
7150;SDS011;3617;48.836;9.172;2023-04-06T03:22:22;18.03;;;8.73;;
7150;SDS011;3617;48.836;9.172;2023-04-06T03:24:48;18.17;;;10.20;;
7150;SDS011;3617;48.836;9.172;2023-04-06T03:27:14;15.37;;;9.60;;
7150;SDS011;3617;48.836;9.172;2023-04-06T03:29:40;16.30;;;9.60;;
7150;SDS011;3617;48.836;9.172;2023-04-06T03:32:06;14.80;;;9.03;;
7150;SDS011;3617;48.836;9.172;2023-04-06T03:34:32;14.60;;;8.40;;
7150;SDS011;3617;48.836;9.172;2023-04-06T03:36:58;18.30;;;9.03;;
7150;SDS011;3617;48.836;9.172;2023-04-06T03:39:24;13.63;;;8.03;;
7150;SDS011;3617;48.836;9.172;2023-04-06T03:41:50;15.37;;;8.40;;
7150;SDS011;3617;48.836;9.172;2023-04-06T03:44:16;17.10;;;8.33;;
7150;SDS011;3617;48.836;9.172;2023-04-06T03:46:42;15.10;;;8.70;;
7150;SDS011;3617;48.836;9.172;2023-04-06T03:49:08;12.43;;;7.53;;
7150;SDS011;3617;48.836;9.172;2023-04-06T03:51:34;11.73;;;7.47;;
7150;SDS011;3617;48.836;9.172;2023-04-06T03:54:00;13.47;;;7.87;;
7150;SDS011;3617;48.836;9.172;2023-04-06T03:56:26;12.70;;;7.73;;
7150;SDS011;3617;48.836;9.172;2023-04-06T03:58:52;16.73;;;9.17;;
7150;SDS011;3617;48.836;9.172;2023-04-06T04:01:18;11.13;;;7.80;;
7150;SDS011;3617;48.836;9.172;2023-04-06T04:03:44;17.73;;;9.07;;
7150;SDS011;3617;48.836;9.172;2023-04-06T04:06:11;15.50;;;8.83;;
7150;SDS011;3617;48.836;9.172;2023-04-06T04:08:37;14.33;;;9.20;;
7150;SDS011;3617;48.836;9.172;2023-04-06T04:11:03;15.10;;;9.40;;
7150;SDS011;3617;48.836;9.172;2023-04-06T04:13:29;16.67;;;9.63;;
7150;SDS011;3617;48.836;9.172;2023-04-06T04:15:55;15.43;;;9.10;;
7150;SDS011;3617;48.836;9.172;2023-04-06T04:18:21;14.37;;;8.30;;
7150;SDS011;3617;48.836;9.172;2023-04-06T04:20:47;14.40;;;8.63;;
7150;SDS011;3617;48.836;9.172;2023-04-06T04:23:13;14.73;;;9.13;;
7150;SDS011;3617;48.836;9.172;2023-04-06T04:25:40;16.17;;;9.97;;
7150;SDS011;3617;48.836;9.172;2023-04-06T04:28:06;20.10;;;10.03;;
7150;SDS011;3617;48.836;9.172;2023-04-06T04:30:32;17.17;;;9.33;;
7150;SDS011;3617;48.836;9.172;2023-04-06T04:32:58;14.67;;;9.07;;
7150;SDS011;3617;48.836;9.172;2023-04-06T04:35:24;26.93;;;12.90;;
7150;SDS011;3617;48.836;9.172;2023-04-06T04:37:50;32.27;;;13.57;;
7150;SDS011;3617;48.836;9.172;2023-04-06T04:40:16;25.77;;;12.47;;
7150;SDS011;3617;48.836;9.172;2023-04-06T04:42:42;22.60;;;11.37;;
7150;SDS011;3617;48.836;9.172;2023-04-06T04:45:08;21.57;;;10.83;;
7150;SDS011;3617;48.836;9.172;2023-04-06T04:47:34;18.47;;;10.43;;
7150;SDS011;3617;48.836;9.172;2023-04-06T04:50:00;21.23;;;11.53;;
7150;SDS011;3617;48.836;9.172;2023-04-06T04:52:26;17.07;;;9.87;;
7150;SDS011;3617;48.836;9.172;2023-04-06T04:54:52;18.03;;;10.37;;
7150;SDS011;3617;48.836;9.172;2023-04-06T04:57:18;22.90;;;10.43;;
7150;SDS011;3617;48.836;9.172;2023-04-06T04:59:44;20.87;;;9.83;;
7150;SDS011;3617;48.836;9.172;2023-04-06T05:02:10;17.20;;;9.83;;
7150;SDS011;3617;48.836;9.172;2023-04-06T05:04:36;20.30;;;9.37;;
7150;SDS011;3617;48.836;9.172;2023-04-06T05:07:03;14.67;;;8.87;;
7150;SDS011;3617;48.836;9.172;2023-04-06T05:09:29;19.33;;;8.73;;
7150;SDS011;3617;48.836;9.172;2023-04-06T05:11:56;14.00;;;9.10;;
7150;SDS011;3617;48.836;9.172;2023-04-06T05:14:22;14.77;;;8.17;;
7150;SDS011;3617;48.836;9.172;2023-04-06T05:16:48;15.50;;;9.30;;
7150;SDS011;3617;48.836;9.172;2023-04-06T05:19:14;15.30;;;9.20;;
7150;SDS011;3617;48.836;9.172;2023-04-06T05:21:40;13.20;;;8.57;;
7150;SDS011;3617;48.836;9.172;2023-04-06T05:24:06;13.67;;;9.43;;
7150;SDS011;3617;48.836;9.172;2023-04-06T05:26:33;18.60;;;9.90;;
7150;SDS011;3617;48.836;9.172;2023-04-06T05:28:59;15.73;;;9.67;;
7150;SDS011;3617;48.836;9.172;2023-04-06T05:31:25;13.10;;;9.37;;
7150;SDS011;3617;48.836;9.172;2023-04-06T05:33:51;18.27;;;10.43;;
7150;SDS011;3617;48.836;9.172;2023-04-06T05:36:17;20.03;;;12.63;;
7150;SDS011;3617;48.836;9.172;2023-04-06T05:38:43;22.80;;;10.30;;
7150;SDS011;3617;48.836;9.172;2023-04-06T05:41:09;17.27;;;11.17;;
7150;SDS011;3617;48.836;9.172;2023-04-06T05:43:36;20.17;;;11.43;;
7150;SDS011;3617;48.836;9.172;2023-04-06T05:46:02;18.20;;;11.57;;
7150;SDS011;3617;48.836;9.172;2023-04-06T05:48:28;22.00;;;10.70;;
7150;SDS011;3617;48.836;9.172;2023-04-06T05:50:54;16.83;;;10.70;;
7150;SDS011;3617;48.836;9.172;2023-04-06T05:53:20;16.60;;;10.20;;
7150;SDS011;3617;48.836;9.172;2023-04-06T05:55:46;18.33;;;10.77;;
7150;SDS011;3617;48.836;9.172;2023-04-06T05:58:13;18.40;;;10.20;;
7150;SDS011;3617;48.836;9.172;2023-04-06T06:00:39;22.83;;;10.87;;
7150;SDS011;3617;48.836;9.172;2023-04-06T06:03:05;14.50;;;9.90;;
7150;SDS011;3617;48.836;9.172;2023-04-06T06:05:33;16.53;;;10.40;;
7150;SDS011;3617;48.836;9.172;2023-04-06T06:07:59;16.53;;;9.23;;
7150;SDS011;3617;48.836;9.172;2023-04-06T06:10:27;19.17;;;10.23;;
7150;SDS011;3617;48.836;9.172;2023-04-06T06:12:53;15.10;;;9.23;;
7150;SDS011;3617;48.836;9.172;2023-04-06T06:15:19;21.07;;;9.70;;
7150;SDS011;3617;48.836;9.172;2023-04-06T06:17:45;18.30;;;9.63;;
7150;SDS011;3617;48.836;9.172;2023-04-06T06:20:11;18.27;;;10.10;;
7150;SDS011;3617;48.836;9.172;2023-04-06T06:22:37;16.40;;;9.47;;
7150;SDS011;3617;48.836;9.172;2023-04-06T06:25:05;14.17;;;9.93;;
7150;SDS011;3617;48.836;9.172;2023-04-06T06:27:31;18.37;;;10.30;;
7150;SDS011;3617;48.836;9.172;2023-04-06T06:29:57;16.20;;;9.37;;
7150;SDS011;3617;48.836;9.172;2023-04-06T06:32:23;16.50;;;10.03;;
7150;SDS011;3617;48.836;9.172;2023-04-06T06:34:49;15.57;;;10.13;;
7150;SDS011;3617;48.836;9.172;2023-04-06T06:37:15;17.00;;;9.47;;
7150;SDS011;3617;48.836;9.172;2023-04-06T06:39:41;19.63;;;10.53;;
7150;SDS011;3617;48.836;9.172;2023-04-06T06:42:07;15.63;;;9.37;;
7150;SDS011;3617;48.836;9.172;2023-04-06T06:44:33;17.67;;;9.47;;
7150;SDS011;3617;48.836;9.172;2023-04-06T06:46:59;17.83;;;9.70;;
7150;SDS011;3617;48.836;9.172;2023-04-06T06:49:25;13.83;;;8.97;;
7150;SDS011;3617;48.836;9.172;2023-04-06T06:51:52;18.73;;;9.13;;
7150;SDS011;3617;48.836;9.172;2023-04-06T06:54:18;14.00;;;9.27;;
7150;SDS011;3617;48.836;9.172;2023-04-06T06:56:44;11.67;;;7.70;;
7150;SDS011;3617;48.836;9.172;2023-04-06T06:59:10;16.20;;;8.37;;
7150;SDS011;3617;48.836;9.172;2023-04-06T07:01:36;15.03;;;8.50;;
7150;SDS011;3617;48.836;9.172;2023-04-06T07:04:02;15.13;;;8.50;;
7150;SDS011;3617;48.836;9.172;2023-04-06T07:06:28;11.33;;;7.33;;
7150;SDS011;3617;48.836;9.172;2023-04-06T07:08:54;13.20;;;8.17;;
7150;SDS011;3617;48.836;9.172;2023-04-06T07:11:20;15.07;;;8.60;;
7150;SDS011;3617;48.836;9.172;2023-04-06T07:13:46;15.03;;;8.77;;
7150;SDS011;3617;48.836;9.172;2023-04-06T07:16:12;11.37;;;8.90;;
7150;SDS011;3617;48.836;9.172;2023-04-06T07:18:38;17.73;;;8.90;;
7150;SDS011;3617;48.836;9.172;2023-04-06T07:21:04;13.37;;;8.63;;
7150;SDS011;3617;48.836;9.172;2023-04-06T07:23:30;15.03;;;9.20;;
7150;SDS011;3617;48.836;9.172;2023-04-06T07:25:56;14.87;;;9.37;;
7150;SDS011;3617;48.836;9.172;2023-04-06T07:28:22;15.77;;;8.80;;
7150;SDS011;3617;48.836;9.172;2023-04-06T07:30:48;16.57;;;8.93;;
7150;SDS011;3617;48.836;9.172;2023-04-06T07:33:15;17.10;;;9.37;;
7150;SDS011;3617;48.836;9.172;2023-04-06T07:35:41;11.77;;;8.37;;
7150;SDS011;3617;48.836;9.172;2023-04-06T07:38:07;15.37;;;9.60;;
7150;SDS011;3617;48.836;9.172;2023-04-06T07:40:33;13.80;;;9.10;;
7150;SDS011;3617;48.836;9.172;2023-04-06T07:42:59;13.50;;;8.60;;
7150;SDS011;3617;48.836;9.172;2023-04-06T07:45:26;13.90;;;8.50;;
7150;SDS011;3617;48.836;9.172;2023-04-06T07:47:52;14.87;;;9.07;;
7150;SDS011;3617;48.836;9.172;2023-04-06T07:50:18;11.73;;;8.27;;
7150;SDS011;3617;48.836;9.172;2023-04-06T07:52:45;13.43;;;8.43;;
7150;SDS011;3617;48.836;9.172;2023-04-06T07:55:11;15.90;;;8.93;;
7150;SDS011;3617;48.836;9.172;2023-04-06T07:57:37;17.23;;;9.43;;
7150;SDS011;3617;48.836;9.172;2023-04-06T08:00:03;12.70;;;8.73;;
7150;SDS011;3617;48.836;9.172;2023-04-06T08:02:31;12.93;;;8.60;;
7150;SDS011;3617;48.836;9.172;2023-04-06T08:04:57;18.07;;;8.77;;
7150;SDS011;3617;48.836;9.172;2023-04-06T08:07:23;13.47;;;8.30;;
7150;SDS011;3617;48.836;9.172;2023-04-06T08:09:49;16.00;;;8.67;;
7150;SDS011;3617;48.836;9.172;2023-04-06T08:12:15;13.30;;;8.17;;
7150;SDS011;3617;48.836;9.172;2023-04-06T08:14:41;12.07;;;7.80;;
7150;SDS011;3617;48.836;9.172;2023-04-06T08:17:07;15.63;;;8.73;;
7150;SDS011;3617;48.836;9.172;2023-04-06T08:19:33;12.67;;;8.17;;
7150;SDS011;3617;48.836;9.172;2023-04-06T08:21:59;14.53;;;8.57;;
7150;SDS011;3617;48.836;9.172;2023-04-06T08:24:25;15.50;;;8.30;;
7150;SDS011;3617;48.836;9.172;2023-04-06T08:26:51;12.17;;;8.27;;
7150;SDS011;3617;48.836;9.172;2023-04-06T08:29:17;12.13;;;8.03;;
7150;SDS011;3617;48.836;9.172;2023-04-06T08:31:43;11.23;;;7.80;;
7150;SDS011;3617;48.836;9.172;2023-04-06T08:34:09;17.33;;;8.77;;
7150;SDS011;3617;48.836;9.172;2023-04-06T08:36:35;14.93;;;8.80;;
7150;SDS011;3617;48.836;9.172;2023-04-06T08:39:01;11.83;;;8.53;;
7150;SDS011;3617;48.836;9.172;2023-04-06T08:41:27;11.27;;;8.27;;
7150;SDS011;3617;48.836;9.172;2023-04-06T08:43:57;15.63;;;8.77;;
7150;SDS011;3617;48.836;9.172;2023-04-06T08:46:24;10.27;;;7.40;;
7150;SDS011;3617;48.836;9.172;2023-04-06T08:48:54;13.67;;;8.23;;
7150;SDS011;3617;48.836;9.172;2023-04-06T08:51:20;11.50;;;7.50;;
7150;SDS011;3617;48.836;9.172;2023-04-06T08:53:48;11.10;;;8.00;;
7150;SDS011;3617;48.836;9.172;2023-04-06T08:56:15;13.00;;;7.73;;
7150;SDS011;3617;48.836;9.172;2023-04-06T08:58:41;11.47;;;8.03;;
7150;SDS011;3617;48.836;9.172;2023-04-06T09:01:08;12.77;;;8.73;;
7150;SDS011;3617;48.836;9.172;2023-04-06T09:03:35;11.27;;;7.70;;
7150;SDS011;3617;48.836;9.172;2023-04-06T09:06:03;10.50;;;8.20;;
7150;SDS011;3617;48.836;9.172;2023-04-06T09:08:29;10.80;;;7.87;;
7150;SDS011;3617;48.836;9.172;2023-04-06T09:10:55;13.20;;;7.67;;
7150;SDS011;3617;48.836;9.172;2023-04-06T09:13:21;14.03;;;7.63;;
7150;SDS011;3617;48.836;9.172;2023-04-06T09:15:57;10.57;;;7.63;;
7150;SDS011;3617;48.836;9.172;2023-04-06T09:18:30;9.07;;;6.97;;
7150;SDS011;3617;48.836;9.172;2023-04-06T09:21:00;9.93;;;6.77;;
7150;SDS011;3617;48.836;9.172;2023-04-06T09:23:26;11.00;;;7.33;;
7150;SDS011;3617;48.836;9.172;2023-04-06T09:26:04;8.47;;;6.73;;
7150;SDS011;3617;48.836;9.172;2023-04-06T09:28:40;8.57;;;6.03;;
7150;SDS011;3617;48.836;9.172;2023-04-06T09:31:06;10.93;;;6.60;;
7150;SDS011;3617;48.836;9.172;2023-04-06T09:33:36;9.02;;;6.35;;
7150;SDS011;3617;48.836;9.172;2023-04-06T09:36:03;9.63;;;6.28;;
7150;SDS011;3617;48.836;9.172;2023-04-06T09:38:29;11.82;;;6.25;;
7150;SDS011;3617;48.836;9.172;2023-04-06T09:40:55;7.72;;;6.55;;
7150;SDS011;3617;48.836;9.172;2023-04-06T09:43:26;8.80;;;6.85;;
7150;SDS011;3617;48.836;9.172;2023-04-06T09:45:52;10.55;;;6.78;;
7150;SDS011;3617;48.836;9.172;2023-04-06T09:48:19;11.13;;;7.05;;
7150;SDS011;3617;48.836;9.172;2023-04-06T09:50:47;10.45;;;6.57;;
7150;SDS011;3617;48.836;9.172;2023-04-06T09:53:14;10.60;;;6.80;;
7150;SDS011;3617;48.836;9.172;2023-04-06T09:55:41;10.23;;;6.95;;
7150;SDS011;3617;48.836;9.172;2023-04-06T09:58:12;9.73;;;6.18;;
7150;SDS011;3617;48.836;9.172;2023-04-06T10:00:50;9.27;;;6.57;;
7150;SDS011;3617;48.836;9.172;2023-04-06T10:05:55;19.27;;;6.70;;
7150;SDS011;3617;48.836;9.172;2023-04-06T10:08:28;11.33;;;7.30;;
7150;SDS011;3617;48.836;9.172;2023-04-06T10:10:55;11.80;;;7.47;;
7150;SDS011;3617;48.836;9.172;2023-04-06T10:13:21;11.70;;;7.40;;
7150;SDS011;3617;48.836;9.172;2023-04-06T10:15:49;9.83;;;7.07;;
7150;SDS011;3617;48.836;9.172;2023-04-06T10:18:15;11.97;;;6.73;;
7150;SDS011;3617;48.836;9.172;2023-04-06T10:21:24;12.07;;;6.30;;
7150;SDS011;3617;48.836;9.172;2023-04-06T10:23:33;10.07;;;5.83;;
7150;SDS011;3617;48.836;9.172;2023-04-06T10:26:00;10.47;;;6.50;;
7150;SDS011;3617;48.836;9.172;2023-04-06T10:28:30;7.67;;;6.37;;
7150;SDS011;3617;48.836;9.172;2023-04-06T10:30:57;8.70;;;6.57;;
7150;SDS011;3617;48.836;9.172;2023-04-06T10:33:23;9.43;;;6.77;;
7150;SDS011;3617;48.836;9.172;2023-04-06T10:35:49;11.93;;;6.37;;
7150;SDS011;3617;48.836;9.172;2023-04-06T10:38:15;9.30;;;6.80;;
7150;SDS011;3617;48.836;9.172;2023-04-06T10:40:45;9.77;;;6.73;;
7150;SDS011;3617;48.836;9.172;2023-04-06T10:45:39;10.83;;;7.07;;
7150;SDS011;3617;48.836;9.172;2023-04-06T10:48:15;9.50;;;6.70;;
7150;SDS011;3617;48.836;9.172;2023-04-06T10:50:46;9.63;;;7.13;;
7150;SDS011;3617;48.836;9.172;2023-04-06T10:53:20;12.37;;;6.97;;
7150;SDS011;3617;48.836;9.172;2023-04-06T10:55:46;9.53;;;6.60;;
7150;SDS011;3617;48.836;9.172;2023-04-06T10:58:12;11.07;;;6.20;;
7150;SDS011;3617;48.836;9.172;2023-04-06T11:00:43;10.37;;;6.60;;
7150;SDS011;3617;48.836;9.172;2023-04-06T11:03:10;10.63;;;5.80;;
7150;SDS011;3617;48.836;9.172;2023-04-06T11:05:36;9.33;;;6.47;;
7150;SDS011;3617;48.836;9.172;2023-04-06T11:08:02;8.50;;;6.23;;
7150;SDS011;3617;48.836;9.172;2023-04-06T11:10:28;9.47;;;6.13;;
7150;SDS011;3617;48.836;9.172;2023-04-06T11:12:55;8.97;;;6.27;;
7150;SDS011;3617;48.836;9.172;2023-04-06T11:15:21;10.20;;;6.93;;
7150;SDS011;3617;48.836;9.172;2023-04-06T11:17:48;11.10;;;6.77;;
7150;SDS011;3617;48.836;9.172;2023-04-06T11:20:14;9.87;;;6.60;;
7150;SDS011;3617;48.836;9.172;2023-04-06T11:22:50;10.03;;;6.60;;
7150;SDS011;3617;48.836;9.172;2023-04-06T11:25:17;11.50;;;6.33;;
7150;SDS011;3617;48.836;9.172;2023-04-06T11:27:43;13.20;;;6.73;;
7150;SDS011;3617;48.836;9.172;2023-04-06T11:30:10;10.03;;;6.10;;
7150;SDS011;3617;48.836;9.172;2023-04-06T11:32:43;9.00;;;5.83;;
7150;SDS011;3617;48.836;9.172;2023-04-06T11:35:19;10.33;;;5.80;;
7150;SDS011;3617;48.836;9.172;2023-04-06T11:37:46;9.07;;;6.07;;
7150;SDS011;3617;48.836;9.172;2023-04-06T11:40:12;9.67;;;5.87;;
7150;SDS011;3617;48.836;9.172;2023-04-06T11:42:38;9.53;;;5.80;;
7150;SDS011;3617;48.836;9.172;2023-04-06T11:45:04;9.00;;;5.80;;
7150;SDS011;3617;48.836;9.172;2023-04-06T11:47:34;10.53;;;5.77;;
7150;SDS011;3617;48.836;9.172;2023-04-06T11:50:07;8.23;;;5.50;;
7150;SDS011;3617;48.836;9.172;2023-04-06T11:52:33;9.07;;;5.80;;
7150;SDS011;3617;48.836;9.172;2023-04-06T11:55:09;8.90;;;5.47;;
7150;SDS011;3617;48.836;9.172;2023-04-06T11:57:35;11.20;;;5.47;;
7150;SDS011;3617;48.836;9.172;2023-04-06T12:00:02;9.23;;;5.33;;
7150;SDS011;3617;48.836;9.172;2023-04-06T12:02:28;8.23;;;5.80;;
7150;SDS011;3617;48.836;9.172;2023-04-06T12:04:54;8.87;;;5.10;;
7150;SDS011;3617;48.836;9.172;2023-04-06T12:07:20;9.13;;;5.10;;
7150;SDS011;3617;48.836;9.172;2023-04-06T12:09:46;8.70;;;5.13;;
7150;SDS011;3617;48.836;9.172;2023-04-06T12:12:12;6.57;;;5.20;;
7150;SDS011;3617;48.836;9.172;2023-04-06T12:14:38;8.00;;;5.63;;
7150;SDS011;3617;48.836;9.172;2023-04-06T12:17:04;8.17;;;5.57;;
7150;SDS011;3617;48.836;9.172;2023-04-06T12:19:30;8.70;;;5.80;;
7150;SDS011;3617;48.836;9.172;2023-04-06T12:21:56;9.20;;;5.63;;
7150;SDS011;3617;48.836;9.172;2023-04-06T12:24:23;7.77;;;5.40;;
7150;SDS011;3617;48.836;9.172;2023-04-06T12:26:49;7.67;;;5.60;;
7150;SDS011;3617;48.836;9.172;2023-04-06T12:29:15;7.43;;;5.40;;
7150;SDS011;3617;48.836;9.172;2023-04-06T12:31:41;8.83;;;5.20;;
7150;SDS011;3617;48.836;9.172;2023-04-06T12:34:09;7.87;;;5.13;;
7150;SDS011;3617;48.836;9.172;2023-04-06T12:36:36;7.17;;;4.90;;
7150;SDS011;3617;48.836;9.172;2023-04-06T12:39:02;8.30;;;5.80;;
7150;SDS011;3617;48.836;9.172;2023-04-06T12:41:28;8.63;;;5.90;;
7150;SDS011;3617;48.836;9.172;2023-04-06T12:43:54;7.60;;;5.50;;
7150;SDS011;3617;48.836;9.172;2023-04-06T12:46:20;8.90;;;5.83;;
7150;SDS011;3617;48.836;9.172;2023-04-06T12:48:46;6.97;;;4.97;;
7150;SDS011;3617;48.836;9.172;2023-04-06T12:51:13;8.30;;;5.50;;
7150;SDS011;3617;48.836;9.172;2023-04-06T12:53:39;7.87;;;5.27;;
7150;SDS011;3617;48.836;9.172;2023-04-06T12:56:12;7.87;;;4.90;;
7150;SDS011;3617;48.836;9.172;2023-04-06T12:58:39;7.50;;;4.97;;
7150;SDS011;3617;48.836;9.172;2023-04-06T13:01:08;6.37;;;4.77;;
7150;SDS011;3617;48.836;9.172;2023-04-06T13:03:34;9.07;;;5.10;;
7150;SDS011;3617;48.836;9.172;2023-04-06T13:06:01;7.27;;;5.43;;
7150;SDS011;3617;48.836;9.172;2023-04-06T13:08:27;6.93;;;4.73;;
7150;SDS011;3617;48.836;9.172;2023-04-06T13:10:53;7.37;;;5.03;;
7150;SDS011;3617;48.836;9.172;2023-04-06T13:13:22;9.77;;;5.00;;
7150;SDS011;3617;48.836;9.172;2023-04-06T13:15:48;7.00;;;4.80;;
7150;SDS011;3617;48.836;9.172;2023-04-06T13:18:14;7.03;;;4.90;;
7150;SDS011;3617;48.836;9.172;2023-04-06T13:20:40;8.40;;;5.10;;
7150;SDS011;3617;48.836;9.172;2023-04-06T13:23:07;10.33;;;5.10;;
7150;SDS011;3617;48.836;9.172;2023-04-06T13:25:33;7.33;;;4.97;;
7150;SDS011;3617;48.836;9.172;2023-04-06T13:27:59;9.00;;;5.23;;
7150;SDS011;3617;48.836;9.172;2023-04-06T13:30:25;7.80;;;5.40;;
7150;SDS011;3617;48.836;9.172;2023-04-06T13:32:51;9.20;;;5.10;;
7150;SDS011;3617;48.836;9.172;2023-04-06T13:35:17;6.57;;;5.07;;
7150;SDS011;3617;48.836;9.172;2023-04-06T13:37:43;8.80;;;5.37;;
7150;SDS011;3617;48.836;9.172;2023-04-06T13:40:10;7.83;;;4.70;;
7150;SDS011;3617;48.836;9.172;2023-04-06T13:42:36;8.53;;;5.30;;
7150;SDS011;3617;48.836;9.172;2023-04-06T13:45:05;9.27;;;5.37;;
7150;SDS011;3617;48.836;9.172;2023-04-06T13:47:31;7.67;;;5.00;;
7150;SDS011;3617;48.836;9.172;2023-04-06T13:49:57;7.10;;;4.73;;
7150;SDS011;3617;48.836;9.172;2023-04-06T13:52:23;7.33;;;4.87;;
7150;SDS011;3617;48.836;9.172;2023-04-06T13:54:49;7.50;;;4.77;;
7150;SDS011;3617;48.836;9.172;2023-04-06T13:57:15;7.93;;;4.77;;
7150;SDS011;3617;48.836;9.172;2023-04-06T13:59:41;5.57;;;4.30;;
7150;SDS011;3617;48.836;9.172;2023-04-06T14:02:08;7.97;;;4.60;;
7150;SDS011;3617;48.836;9.172;2023-04-06T14:04:34;6.03;;;4.33;;
7150;SDS011;3617;48.836;9.172;2023-04-06T14:07:00;6.80;;;5.23;;
7150;SDS011;3617;48.836;9.172;2023-04-06T14:09:29;8.80;;;5.40;;
7150;SDS011;3617;48.836;9.172;2023-04-06T14:11:56;7.13;;;4.80;;
7150;SDS011;3617;48.836;9.172;2023-04-06T14:14:22;9.37;;;4.63;;
7150;SDS011;3617;48.836;9.172;2023-04-06T14:16:48;7.33;;;4.80;;
7150;SDS011;3617;48.836;9.172;2023-04-06T14:19:15;6.63;;;4.70;;
7150;SDS011;3617;48.836;9.172;2023-04-06T14:21:42;6.40;;;4.60;;
7150;SDS011;3617;48.836;9.172;2023-04-06T14:24:09;7.27;;;5.00;;
7150;SDS011;3617;48.836;9.172;2023-04-06T14:26:35;8.00;;;5.00;;
7150;SDS011;3617;48.836;9.172;2023-04-06T14:29:02;6.73;;;5.00;;
7150;SDS011;3617;48.836;9.172;2023-04-06T14:31:29;7.83;;;5.20;;
7150;SDS011;3617;48.836;9.172;2023-04-06T14:33:55;7.80;;;4.90;;
7150;SDS011;3617;48.836;9.172;2023-04-06T14:36:21;7.60;;;5.17;;
7150;SDS011;3617;48.836;9.172;2023-04-06T14:38:47;6.47;;;4.93;;
7150;SDS011;3617;48.836;9.172;2023-04-06T14:41:16;8.13;;;5.20;;
7150;SDS011;3617;48.836;9.172;2023-04-06T14:43:43;7.07;;;3.90;;
7150;SDS011;3617;48.836;9.172;2023-04-06T14:46:09;7.33;;;4.90;;
7150;SDS011;3617;48.836;9.172;2023-04-06T14:48:35;7.93;;;4.63;;
7150;SDS011;3617;48.836;9.172;2023-04-06T14:51:01;7.10;;;5.07;;
7150;SDS011;3617;48.836;9.172;2023-04-06T14:53:28;7.23;;;5.07;;
7150;SDS011;3617;48.836;9.172;2023-04-06T14:55:54;8.87;;;5.13;;
7150;SDS011;3617;48.836;9.172;2023-04-06T14:58:21;7.60;;;4.83;;
7150;SDS011;3617;48.836;9.172;2023-04-06T15:00:47;7.80;;;5.43;;
7150;SDS011;3617;48.836;9.172;2023-04-06T15:03:14;8.90;;;5.43;;
7150;SDS011;3617;48.836;9.172;2023-04-06T15:05:40;8.43;;;5.37;;